Time;durP1;ratioP1;P1;durP2;ratioP2;P2;SDS_P1;SDS_P2;PMS_P1;PMS_P2;Temp;Humidity;BMP_temperature;BMP_pressure;BME280_temperature;BME280_humidity;BME280_pressure;Samples;Min_cycle;Max_cycle;Signal;HPM_P1;HPM_P2
2021/10/26 00:01:13;;;;;;;4.30;3.90;;;;;;;9.18;76.37;96071.22;6132105;23;20202;-83
2021/10/26 00:03:40;;;;;;;4.73;4.10;;;;;;;9.20;76.36;96065.94;6131778;23;20180;-83
2021/10/26 00:06:06;;;;;;;5.57;4.50;;;;;;;9.19;76.60;96077.16;6130655;23;20182;-82
2021/10/26 00:08:33;;;;;;;6.37;4.30;;;;;;;9.21;76.17;96078.63;6131967;23;20207;-82
2021/10/26 00:11:01;;;;;;;4.87;4.47;;;;;;;9.22;75.83;96079.44;6131831;23;20172;-82
2021/10/26 00:13:28;;;;;;;5.23;4.20;;;;;;;9.19;75.65;96072.81;6130877;23;20195;-82
2021/10/26 00:15:54;;;;;;;5.20;4.40;;;;;;;9.17;75.81;96066.22;6130189;23;20179;-82
2021/10/26 00:18:21;;;;;;;5.20;4.70;;;;;;;9.16;75.86;96078.28;6130460;23;20206;-83
2021/10/26 00:20:47;;;;;;;5.23;4.73;;;;;;;9.16;75.43;96068.00;6129424;23;20222;-83
2021/10/26 00:23:14;;;;;;;5.10;4.57;;;;;;;9.15;75.90;96078.44;6130732;23;20240;-83
2021/10/26 00:25:40;;;;;;;5.83;4.50;;;;;;;9.12;75.55;96068.44;6131999;23;20182;-82
2021/10/26 00:28:10;;;;;;;5.70;4.83;;;;;;;9.14;75.64;96064.78;6130575;23;20235;-82
2021/10/26 00:30:36;;;;;;;6.23;4.50;;;;;;;9.13;75.64;96070.88;6130831;23;20182;-83
2021/10/26 00:33:03;;;;;;;5.03;4.47;;;;;;;9.12;75.74;96079.53;6128923;23;20181;-82
2021/10/26 00:35:30;;;;;;;4.50;4.10;;;;;;;9.13;75.86;96072.63;6128437;23;20180;-82
2021/10/26 00:37:57;;;;;;;4.97;4.50;;;;;;;9.17;75.33;96073.94;6128118;23;20206;-82
2021/10/26 00:40:24;;;;;;;5.30;4.23;;;;;;;9.18;75.00;96076.34;6128734;23;20207;-83
2021/10/26 00:42:51;;;;;;;5.03;4.27;;;;;;;9.18;75.32;96072.97;6128822;23;20186;-82
2021/10/26 00:45:19;;;;;;;4.60;4.03;;;;;;;9.15;75.84;96081.00;6128164;23;20258;-83
2021/10/26 00:47:45;;;;;;;4.80;4.40;;;;;;;9.19;75.37;96077.16;6128206;23;20199;-82
2021/10/26 00:50:12;;;;;;;4.67;4.13;;;;;;;9.19;75.43;96080.53;6128043;23;20203;-83
2021/10/26 00:52:39;;;;;;;5.30;4.73;;;;;;;9.20;75.02;96071.88;6127768;23;20203;-83
2021/10/26 00:55:07;;;;;;;4.80;4.30;;;;;;;9.18;75.46;96078.13;6128139;23;20227;-83
2021/10/26 00:57:34;;;;;;;4.70;4.30;;;;;;;9.17;75.50;96073.94;6130050;23;20230;-83
2021/10/26 01:00:00;;;;;;;4.87;4.47;;;;;;;9.15;75.34;96074.09;6131898;23;20207;-82
2021/10/26 01:02:28;;;;;;;4.93;4.43;;;;;;;9.16;75.02;96056.91;6131736;23;20199;-82
2021/10/26 01:04:55;;;;;;;4.80;4.37;;;;;;;9.12;75.17;96069.25;6132196;23;20180;-83
2021/10/26 01:07:21;;;;;;;4.77;4.37;;;;;;;9.10;74.90;96062.66;6132795;23;20183;-83
2021/10/26 01:09:48;;;;;;;4.60;4.20;;;;;;;9.11;74.96;96061.72;6132901;23;20684;-82
2021/10/26 01:12:14;;;;;;;5.57;4.60;;;;;;;9.06;75.13;96064.72;6132145;23;20176;-83
2021/10/26 01:14:41;;;;;;;4.53;4.10;;;;;;;9.02;75.48;96060.88;6131220;23;20195;-83
2021/10/26 01:17:10;;;;;;;4.80;4.07;;;;;;;9.01;75.33;96059.28;6132079;23;20186;-83
2021/10/26 01:19:44;;;;;;;5.10;4.60;;;;;;;8.88;75.22;96064.03;6132645;23;20196;-82
2021/10/26 01:22:11;;;;;;;6.17;4.13;;;;;;;8.86;75.40;96064.16;6132256;23;20182;-83
2021/10/26 01:24:38;;;;;;;4.60;4.20;;;;;;;8.88;75.43;96067.41;6131474;23;20176;-83
2021/10/26 01:27:04;;;;;;;4.63;4.00;;;;;;;8.80;75.20;96069.94;6129652;23;20180;-82
2021/10/26 01:29:31;;;;;;;4.23;3.83;;;;;;;8.80;75.19;96062.25;6130921;23;20673;-82
2021/10/26 01:31:58;;;;;;;5.47;4.27;;;;;;;8.84;75.03;96068.69;6130060;23;20182;-83
2021/10/26 01:34:24;;;;;;;4.43;4.03;;;;;;;8.89;75.33;96068.19;6130640;23;20234;-83
2021/10/26 01:36:52;;;;;;;4.23;3.83;;;;;;;8.94;74.77;96059.09;6129302;23;20558;-81
2021/10/26 01:39:19;;;;;;;6.20;4.43;;;;;;;8.96;74.35;96059.72;6130199;23;20200;-84
2021/10/26 01:41:45;;;;;;;5.27;4.20;;;;;;;8.98;74.68;96069.84;6131311;23;20195;-82
2021/10/26 01:44:12;;;;;;;4.53;3.97;;;;;;;8.97;74.50;96061.34;6132491;23;20189;-82
2021/10/26 01:46:39;;;;;;;4.93;4.40;;;;;;;9.02;74.19;96063.47;6132337;23;20180;-84
2021/10/26 01:49:05;;;;;;;4.33;3.93;;;;;;;9.02;74.11;96060.88;6132390;23;20274;-82
2021/10/26 01:51:32;;;;;;;6.63;3.63;;;;;;;9.00;74.61;96066.19;6131345;23;20552;-82
2021/10/26 01:54:00;;;;;;;3.90;3.50;;;;;;;9.03;74.26;96059.94;6132866;23;20494;-84
2021/10/26 01:56:26;;;;;;;4.20;3.80;;;;;;;9.03;74.48;96061.69;6132283;23;20195;-83
2021/10/26 01:58:53;;;;;;;3.97;3.57;;;;;;;9.05;73.84;96063.13;6132567;23;20203;-83
2021/10/26 02:01:19;;;;;;;4.17;3.77;;;;;;;9.10;73.39;96062.66;6131896;23;20200;-83
2021/10/26 02:03:46;;;;;;;4.00;3.60;;;;;;;9.08;72.92;96064.56;6132747;23;20182;-83
2021/10/26 02:06:12;;;;;;;4.03;3.70;;;;;;;8.98;73.50;96062.97;6131803;23;20613;-83
2021/10/26 02:08:39;;;;;;;4.20;3.80;;;;;;;8.90;74.05;96064.66;6131377;23;20195;-83
2021/10/26 02:11:06;;;;;;;4.00;3.60;;;;;;;8.91;73.90;96059.38;6131417;23;20176;-83
2021/10/26 02:13:33;;;;;;;3.57;3.27;;;;;;;8.96;73.04;96066.63;6131662;23;20191;-83
2021/10/26 02:15:59;;;;;;;4.77;3.63;;;;;;;8.99;72.70;96066.31;6131572;23;20180;-82
2021/10/26 02:18:26;;;;;;;5.03;3.60;;;;;;;9.00;72.54;96066.19;6131901;23;20429;-82
2021/10/26 02:20:53;;;;;;;3.47;3.17;;;;;;;8.92;72.11;96067.91;6131937;23;20203;-82
2021/10/26 02:23:19;;;;;;;4.17;3.50;;;;;;;8.93;72.31;96077.22;6131667;23;20179;-82
2021/10/26 02:25:46;;;;;;;4.33;3.03;;;;;;;8.93;71.76;96078.00;6131826;23;20186;-81
2021/10/26 02:28:13;;;;;;;4.20;3.30;;;;;;;8.92;71.46;96085.88;6132437;23;20523;-83
2021/10/26 02:30:41;;;;;;;3.17;2.83;;;;;;;8.92;71.23;96080.72;6131874;23;20179;-83
2021/10/26 02:33:07;;;;;;;3.50;2.90;;;;;;;8.91;70.49;96081.69;6131869;23;20626;-83
2021/10/26 02:35:34;;;;;;;3.13;2.80;;;;;;;8.90;70.69;96085.22;6132074;23;20178;-83
2021/10/26 02:38:01;;;;;;;2.87;2.63;;;;;;;8.87;70.37;96081.19;6131937;23;20176;-83
2021/10/26 02:40:28;;;;;;;2.70;2.50;;;;;;;8.85;70.07;96080.53;6132008;23;20179;-82
2021/10/26 02:42:55;;;;;;;3.03;2.73;;;;;;;8.85;70.55;96082.31;6132484;23;20524;-83
2021/10/26 02:45:27;;;;;;;3.37;3.07;;;;;;;8.77;71.26;96075.38;6131681;23;20186;-83
2021/10/26 02:47:53;;;;;;;2.67;2.43;;;;;;;8.79;70.49;96082.94;6131404;23;20261;-83
2021/10/26 02:50:20;;;;;;;3.10;2.80;;;;;;;8.79;70.66;96076.03;6131474;23;20180;-83
2021/10/26 02:52:47;;;;;;;5.30;2.80;;;;;;;8.80;69.83;96087.09;6130153;23;20214;-83
2021/10/26 02:55:13;;;;;;;3.37;2.77;;;;;;;8.78;70.47;96082.13;6131868;23;20179;-83
2021/10/26 02:57:40;;;;;;;2.83;2.40;;;;;;;8.78;70.00;96081.31;6130543;23;20179;-82
2021/10/26 03:00:12;;;;;;;2.60;2.40;;;;;;;8.79;70.35;96077.78;6130358;23;20195;-83
2021/10/26 03:02:41;;;;;;;3.33;3.03;;;;;;;8.79;70.05;96085.50;6126788;23;20194;-81
2021/10/26 03:05:08;;;;;;;3.00;2.67;;;;;;;8.73;70.12;96083.53;6127626;23;20176;-82
2021/10/26 03:07:38;;;;;;;3.33;2.80;;;;;;;8.68;70.22;96078.84;6127471;23;20179;-82
2021/10/26 03:10:05;;;;;;;3.00;2.50;;;;;;;8.71;70.35;96093.16;6128120;23;20200;-83
2021/10/26 03:12:32;;;;;;;2.50;2.30;;;;;;;8.66;70.30;96094.41;6128105;23;20183;-82
2021/10/26 03:14:58;;;;;;;4.87;2.77;;;;;;;8.62;70.59;96090.53;6130674;23;20184;-82
2021/10/26 03:17:25;;;;;;;3.50;2.60;;;;;;;8.62;70.71;96092.31;6130582;23;20180;-83
2021/10/26 03:19:53;;;;;;;3.57;2.47;;;;;;;8.67;70.09;96097.78;6130492;23;20208;-83
2021/10/26 03:22:19;;;;;;;3.87;2.40;;;;;;;8.64;70.37;96093.78;6130742;23;20199;-83
2021/10/26 03:24:46;;;;;;;2.90;2.60;;;;;;;8.65;70.05;96092.00;6131140;23;20175;-82
2021/10/26 03:27:12;;;;;;;3.23;2.70;;;;;;;8.58;70.53;96088.44;6131338;23;20175;-81
2021/10/26 03:29:39;;;;;;;3.20;2.90;;;;;;;8.60;70.40;96089.88;6132061;23;20195;-82
2021/10/26 03:32:06;;;;;;;2.77;2.57;;;;;;;8.51;70.22;96093.34;6131713;23;20176;-82
2021/10/26 03:34:33;;;;;;;2.90;2.70;;;;;;;8.40;70.55;96095.38;6131343;23;20215;-83
2021/10/26 03:37:02;;;;;;;2.80;2.50;;;;;;;8.36;70.75;96099.19;6130881;23;20544;-83
2021/10/26 03:39:29;;;;;;;3.20;2.50;;;;;;;8.32;70.48;96102.03;6131884;23;20200;-83
2021/10/26 03:41:55;;;;;;;2.90;2.70;;;;;;;8.33;70.64;96102.84;6131213;23;20199;-81
2021/10/26 03:44:21;;;;;;;2.80;2.47;;;;;;;8.31;70.65;96104.72;6131089;23;20179;-83
2021/10/26 03:46:48;;;;;;;4.33;2.83;;;;;;;8.30;70.51;96096.22;6130800;23;20182;-82
2021/10/26 03:49:15;;;;;;;3.23;2.83;;;;;;;8.32;70.61;96101.25;6130635;23;20218;-82
2021/10/26 03:51:41;;;;;;;2.67;2.47;;;;;;;8.32;70.50;96102.03;6131105;23;20180;-82
2021/10/26 03:54:09;;;;;;;2.93;2.73;;;;;;;8.21;70.45;96104.84;6131047;23;20537;-82
2021/10/26 03:56:36;;;;;;;2.43;2.23;;;;;;;8.25;71.02;96108.72;6131166;23;20180;-83
2021/10/26 03:59:04;;;;;;;3.00;2.70;;;;;;;8.17;71.04;96103.50;6130759;23;20191;-82
2021/10/26 04:01:31;;;;;;;3.30;3.00;;;;;;;8.02;71.13;96117.00;6131785;23;20222;-82
2021/10/26 04:03:57;;;;;;;3.00;2.70;;;;;;;7.93;71.44;96114.38;6134010;23;20258;-83
2021/10/26 04:06:26;;;;;;;3.33;2.43;;;;;;;7.98;71.76;96117.31;6133159;23;20625;-84
2021/10/26 04:08:57;;;;;;;2.80;2.60;;;;;;;8.05;71.69;96117.53;6133308;23;20215;-81
2021/10/26 04:11:27;;;;;;;3.10;2.80;;;;;;;8.12;71.29;96121.09;6133613;23;20168;-82
2021/10/26 04:13:53;;;;;;;3.57;2.70;;;;;;;8.15;71.45;96120.00;6132725;23;20240;-82
2021/10/26 04:16:21;;;;;;;3.00;2.70;;;;;;;8.19;71.18;96123.88;6133416;23;20164;-82
2021/10/26 04:18:48;;;;;;;3.73;2.67;;;;;;;8.17;71.07;96128.34;6133286;23;20200;-82
2021/10/26 04:21:17;;;;;;;2.30;2.10;;;;;;;8.17;71.59;96129.16;6132534;23;20194;-82
2021/10/26 04:23:46;;;;;;;2.97;2.70;;;;;;;8.23;71.54;96130.34;6133644;23;20644;-82
2021/10/26 04:26:14;;;;;;;2.93;2.63;;;;;;;8.24;71.47;96126.81;6133031;23;20303;-82
2021/10/26 04:28:42;;;;;;;4.03;2.80;;;;;;;8.28;71.49;96135.81;6132474;23;20210;-83
2021/10/26 04:31:08;;;;;;;3.70;2.90;;;;;;;8.28;71.46;96138.38;6133290;23;20179;-82
2021/10/26 04:33:35;;;;;;;3.13;2.60;;;;;;;8.19;71.19;96137.50;6133572;23;20172;-82
2021/10/26 04:36:01;;;;;;;3.23;2.70;;;;;;;8.22;71.40;96136.41;6134572;23;20180;-82
2021/10/26 04:38:27;;;;;;;2.90;2.53;;;;;;;8.22;71.46;96142.34;6133344;23;20274;-82
2021/10/26 04:40:57;;;;;;;3.50;2.70;;;;;;;8.25;71.49;96143.81;6123493;23;20176;-82
2021/10/26 04:43:25;;;;;;;6.03;2.73;;;;;;;8.28;71.33;96143.50;6124253;23;20571;-82
2021/10/26 04:45:53;;;;;;;5.73;2.90;;;;;;;8.28;71.49;96146.88;6126496;23;20320;-82
2021/10/26 04:48:22;;;;;;;3.67;3.00;;;;;;;8.24;71.23;96155.03;6125182;23;20210;-82
2021/10/26 04:50:49;;;;;;;4.90;3.10;;;;;;;8.23;71.64;96151.66;6128548;23;20206;-82
2021/10/26 04:53:15;;;;;;;4.17;2.93;;;;;;;8.23;71.70;96153.44;6127804;23;20207;-83
2021/10/26 04:55:42;;;;;;;3.43;3.07;;;;;;;8.19;72.36;96146.97;6128743;23;20480;-82
2021/10/26 04:58:09;;;;;;;3.10;2.80;;;;;;;8.16;72.41;96154.97;6130095;23;20948;-82
2021/10/26 05:00:35;;;;;;;3.30;2.90;;;;;;;8.03;72.71;96160.47;6125254;23;20179;-83
2021/10/26 05:03:03;;;;;;;3.13;2.83;;;;;;;8.01;72.97;96159.78;6128579;23;20199;-82
2021/10/26 05:05:30;;;;;;;9.03;8.13;;;;;;;8.05;72.45;96160.31;6130239;23;20535;-83
2021/10/26 05:07:56;;;;;;;19.60;15.13;;;;;;;8.03;72.74;96155.34;6129413;23;20184;-83
2021/10/26 05:10:22;;;;;;;8.13;6.30;;;;;;;8.02;72.67;96155.47;6129863;23;20793;-83
2021/10/26 05:12:49;;;;;;;4.57;3.87;;;;;;;8.04;72.30;96163.84;6130195;23;20176;-83
2021/10/26 05:15:15;;;;;;;3.83;3.43;;;;;;;8.07;72.04;96161.78;6129161;23;20175;-82
2021/10/26 05:17:42;;;;;;;4.20;3.50;;;;;;;8.00;72.13;96158.19;6130538;23;20237;-82
2021/10/26 05:20:12;;;;;;;3.63;3.27;;;;;;;7.94;72.31;96163.88;6130552;23;20506;-83
2021/10/26 05:22:39;;;;;;;4.40;3.50;;;;;;;7.92;72.09;96161.47;6130181;23;20187;-83
2021/10/26 05:25:06;;;;;;;3.83;3.33;;;;;;;7.94;72.14;96161.31;6129523;23;20176;-82
2021/10/26 05:27:36;;;;;;;4.13;3.60;;;;;;;7.90;71.68;96160.81;6130277;23;20179;-82
2021/10/26 05:30:03;;;;;;;3.70;3.30;;;;;;;7.88;72.06;96167.06;6129705;23;20223;-82
2021/10/26 05:32:30;;;;;;;3.30;3.00;;;;;;;7.89;71.94;96173.75;6130750;23;20183;-82
2021/10/26 05:34:56;;;;;;;4.47;3.67;;;;;;;7.88;75.44;96172.19;6128563;23;20182;-84
2021/10/26 05:37:24;;;;;;;4.97;3.47;;;;;;;8.21;86.87;96170.72;6126727;23;20179;-84
2021/10/26 05:39:50;;;;;;;5.10;3.47;;;;;;;8.35;73.51;96174.53;6130206;23;20560;-83
2021/10/26 05:42:17;;;;;;;5.07;3.40;;;;;;;8.23;73.11;96184.22;6129145;23;20196;-82
2021/10/26 05:44:43;;;;;;;5.23;3.60;;;;;;;8.27;72.72;96180.41;6128835;23;20187;-82
2021/10/26 05:47:10;;;;;;;4.20;3.77;;;;;;;8.16;72.60;96186.53;6129110;23;20179;-82
2021/10/26 05:49:37;;;;;;;4.93;3.30;;;;;;;8.14;72.34;96190.19;6126010;23;20211;-82
2021/10/26 05:52:04;;;;;;;5.07;3.70;;;;;;;8.11;72.57;96193.06;6128854;23;20179;-83
2021/10/26 05:54:32;;;;;;;8.03;4.17;;;;;;;7.91;74.19;96190.63;6128462;23;20179;-83
2021/10/26 05:56:58;;;;;;;5.37;3.50;;;;;;;7.95;73.38;96194.50;6129738;23;20179;-83
2021/10/26 05:59:24;;;;;;;8.40;3.50;;;;;;;8.03;72.86;96203.25;6128322;23;20199;-84
2021/10/26 06:01:51;;;;;;;6.07;3.77;;;;;;;8.05;72.92;96203.91;6128285;23;20176;-83
2021/10/26 06:04:18;;;;;;;7.03;3.90;;;;;;;8.09;72.59;96206.03;6128360;23;20316;-83
2021/10/26 06:06:46;;;;;;;8.13;3.77;;;;;;;8.05;73.34;96203.91;6130358;23;20250;-83
2021/10/26 06:09:15;;;;;;;10.30;4.57;;;;;;;8.00;74.09;96216.34;6128498;23;20195;-83
2021/10/26 06:11:45;;;;;;;11.63;4.73;;;;;;;7.94;75.62;96212.59;6129055;23;20270;-82
2021/10/26 06:14:11;;;;;;;8.43;4.57;;;;;;;7.94;75.41;96212.59;6129448;23;20203;-83
2021/10/26 06:16:40;;;;;;;7.33;4.50;;;;;;;8.03;75.11;96208.38;6130689;23;20176;-83
2021/10/26 06:19:06;;;;;;;5.77;4.37;;;;;;;8.12;74.96;96215.19;6129814;23;20203;-83
2021/10/26 06:21:32;;;;;;;5.03;4.00;;;;;;;8.15;74.84;96212.34;6130097;23;20179;-83
2021/10/26 06:23:59;;;;;;;5.13;4.00;;;;;;;8.27;74.56;96216.31;6130730;23;20206;-82
2021/10/26 06:26:26;;;;;;;7.83;4.50;;;;;;;8.31;75.32;96220.97;6132097;23;20160;-83
2021/10/26 06:28:55;;;;;;;5.40;3.97;;;;;;;8.39;75.10;96222.06;6130363;23;20199;-83
2021/10/26 06:31:21;;;;;;;6.00;4.57;;;;;;;8.42;75.47;96227.69;6129049;23;20522;-83
2021/10/26 06:33:48;;;;;;;6.70;4.43;;;;;;;8.47;75.12;96230.59;6130463;23;20183;-83
2021/10/26 06:36:14;;;;;;;8.57;4.50;;;;;;;8.46;76.28;96234.16;6129775;23;20188;-83
2021/10/26 06:38:41;;;;;;;7.57;4.13;;;;;;;8.56;75.53;96236.63;6129086;23;20207;-83
2021/10/26 06:41:07;;;;;;;8.50;4.67;;;;;;;8.63;75.24;96237.66;6128521;23;20500;-83
2021/10/26 06:43:35;;;;;;;8.43;5.10;;;;;;;8.65;75.85;96240.88;6129215;23;20748;-83
2021/10/26 06:46:03;;;;;;;7.47;4.70;;;;;;;8.71;74.97;96242.03;6128330;23;20183;-83
2021/10/26 06:48:29;;;;;;;8.33;5.03;;;;;;;8.74;75.24;96237.41;6128589;23;20207;-82
2021/10/26 06:50:56;;;;;;;5.97;4.87;;;;;;;8.83;74.49;96235.72;6128864;23;20160;-83
2021/10/26 06:53:22;;;;;;;5.97;4.43;;;;;;;8.78;75.60;96251.56;6129111;23;20175;-82
2021/10/26 06:55:49;;;;;;;9.70;4.70;;;;;;;8.87;74.46;96253.22;6128912;23;20176;-83
2021/10/26 06:58:17;;;;;;;10.00;4.87;;;;;;;8.88;75.12;96251.47;6127715;23;20266;-83
2021/10/26 07:00:44;;;;;;;5.60;4.50;;;;;;;8.99;74.51;96251.25;6127086;23;20183;-83
2021/10/26 07:03:12;;;;;;;7.27;4.87;;;;;;;9.20;73.81;96256.03;6128290;23;20200;-82
2021/10/26 07:05:39;;;;;;;7.80;4.80;;;;;;;9.15;73.71;96259.06;6127524;23;20183;-83
2021/10/26 07:08:06;;;;;;;5.20;4.40;;;;;;;9.13;74.10;96252.47;6127659;23;20179;-82
2021/10/26 07:10:32;;;;;;;6.10;4.50;;;;;;;9.19;73.94;96262.13;6129069;23;20176;-83
2021/10/26 07:12:59;;;;;;;7.00;5.13;;;;;;;9.67;73.64;96259.81;6129247;23;20164;-83
2021/10/26 07:15:29;;;;;;;6.93;4.37;;;;;;;10.25;71.87;96268.56;6128845;23;20195;-83
2021/10/26 07:20:27;;;;;;;5.50;4.00;;;;;;;11.11;67.97;96268.97;6111004;23;20552;-83
2021/10/26 07:22:54;;;;;;;4.87;4.00;;;;;;;10.89;67.55;96275.56;6128851;23;20202;-83
2021/10/26 07:25:22;;;;;;;6.23;4.33;;;;;;;10.79;68.43;96282.63;6128937;23;20176;-82
2021/10/26 07:27:56;;;;;;;8.80;4.17;;;;;;;11.04;68.29;96283.44;6127515;23;20164;-82
2021/10/26 07:30:23;;;;;;;6.13;4.10;;;;;;;11.55;66.79;96271.13;6098020;23;20510;-82
2021/10/26 07:32:49;;;;;;;5.17;4.40;;;;;;;11.92;66.38;96283.47;6097795;23;20782;-83
2021/10/26 07:35:16;;;;;;;8.60;4.40;;;;;;;12.21;64.87;96285.41;6097837;23;20574;-83
2021/10/26 07:37:45;;;;;;;6.17;3.80;;;;;;;12.45;63.97;96280.94;6098017;23;20527;-83
2021/10/26 07:40:12;;;;;;;8.33;4.10;;;;;;;12.45;63.80;96286.09;6093971;23;20267;-83
2021/10/26 07:42:39;;;;;;;6.90;4.70;;;;;;;12.67;63.69;96283.69;6096666;23;20215;-84
2021/10/26 07:45:07;;;;;;;7.73;4.50;;;;;;;12.84;63.14;96285.19;6097291;23;20180;-84
2021/10/26 07:47:34;;;;;;;5.97;4.47;;;;;;;13.13;62.35;96294.81;6097483;23;20718;-84
2021/10/26 07:50:01;;;;;;;6.27;4.27;;;;;;;13.35;62.22;96294.00;6095403;23;20238;-83
2021/10/26 07:52:28;;;;;;;7.93;4.70;;;;;;;13.07;61.75;96296.31;6097041;23;20501;-84
2021/10/26 07:54:57;;;;;;;7.27;4.70;;;;;;;13.18;62.28;96305.47;6097747;23;20176;-83
2021/10/26 07:57:25;;;;;;;6.77;4.57;;;;;;;13.23;62.21;96300.59;6097278;23;20182;-83
2021/10/26 07:59:53;;;;;;;5.17;4.20;;;;;;;13.24;61.92;96304.78;6096100;23;20498;-84
2021/10/26 08:02:20;;;;;;;5.33;4.17;;;;;;;13.10;62.03;96303.72;6098142;23;20184;-84
2021/10/26 08:04:47;;;;;;;5.73;3.97;;;;;;;12.73;63.18;96301.09;6097824;23;20219;-83
2021/10/26 08:07:16;;;;;;;6.20;4.63;;;;;;;12.50;64.27;96298.50;6097765;23;20184;-83
2021/10/26 08:09:42;;;;;;;6.73;4.00;;;;;;;12.28;64.92;96304.44;6095868;23;20740;-83
2021/10/26 08:12:10;;;;;;;4.77;4.17;;;;;;;12.07;66.37;96298.06;6097454;23;20179;-84
2021/10/26 08:14:50;;;;;;;6.20;4.63;;;;;;;11.95;66.81;96304.56;6099191;23;20176;-83
2021/10/26 08:17:19;;;;;;;9.80;4.80;;;;;;;11.87;67.75;96303.78;6097226;23;20240;-84
2021/10/26 08:19:47;;;;;;;7.00;4.40;;;;;;;11.76;68.73;96302.38;6095503;23;20270;-83
2021/10/26 08:22:16;;;;;;;6.00;5.00;;;;;;;11.68;69.78;96310.91;6096226;23;20180;-83
2021/10/26 08:24:44;;;;;;;6.77;4.73;;;;;;;11.59;70.86;96305.94;6097271;23;20200;-83
2021/10/26 08:27:15;;;;;;;5.17;4.67;;;;;;;11.53;71.06;96306.59;6097807;23;20530;-83
2021/10/26 08:29:54;;;;;;;5.37;4.67;;;;;;;11.48;71.57;96308.88;6096425;23;20200;-83
2021/10/26 08:35:25;;;;;;;9.13;5.10;;;;;;;11.30;73.35;96315.00;6096389;23;20184;-83
2021/10/26 08:37:52;;;;;;;6.93;4.90;;;;;;;11.21;75.75;96315.16;6096567;23;20195;-84
2021/10/26 08:40:20;;;;;;;8.20;5.03;;;;;;;11.14;76.32;96311.66;6095414;23;20212;-83
2021/10/26 08:42:49;;;;;;;10.20;4.93;;;;;;;11.15;75.57;96323.56;6097041;23;20200;-83
2021/10/26 08:45:16;;;;;;;8.97;5.00;;;;;;;11.12;77.00;96323.88;6097260;23;20186;-83
2021/10/26 08:47:44;;;;;;;12.63;5.60;;;;;;;11.14;76.56;96325.34;6097455;23;20160;-83
2021/10/26 08:50:10;;;;;;;6.20;5.20;;;;;;;11.21;76.74;96331.44;6095034;23;20216;-83
2021/10/26 08:52:37;;;;;;;5.63;4.90;;;;;;;11.24;77.64;96330.31;6096366;23;20198;-83
2021/10/26 08:55:07;;;;;;;6.77;5.27;;;;;;;11.25;78.83;96326.78;6095486;23;20180;-83
2021/10/26 08:57:33;;;;;;;5.90;5.30;;;;;;;11.30;78.11;96332.25;6097584;23;20180;-83
2021/10/26 09:00:07;;;;;;;7.97;5.57;;;;;;;11.36;78.79;96326.44;6095652;23;20196;-84
2021/10/26 09:02:35;;;;;;;9.03;5.47;;;;;;;11.40;79.47;96323.38;6097161;23;20161;-84
2021/10/26 09:05:12;;;;;;;6.80;4.97;;;;;;;11.50;79.16;96322.41;6096843;23;20212;-83
2021/10/26 09:07:39;;;;;;;7.00;5.37;;;;;;;11.53;79.71;96320.31;6096680;23;20168;-83
2021/10/26 09:10:10;;;;;;;6.10;5.50;;;;;;;11.57;79.89;96328.50;6095654;23;20275;-83
2021/10/26 09:18:07;;;;;;;7.40;6.07;;;;;;;11.56;80.92;96319.94;6092584;23;20262;-82
2021/10/26 09:20:33;;;;;;;7.83;6.33;;;;;;;11.55;81.43;96320.13;6092215;23;20274;-83
2021/10/26 09:23:03;;;;;;;10.67;7.00;;;;;;;11.58;81.99;96318.03;6097825;23;20196;-82
2021/10/26 09:25:35;;;;;;;9.77;6.60;;;;;;;11.66;81.28;96312.06;6098269;23;20172;-83
2021/10/26 09:28:13;;;;;;;8.80;6.67;;;;;;;11.59;83.24;96313.66;6098528;23;20184;-83
2021/10/26 09:30:43;;;;;;;11.37;7.27;;;;;;;11.67;81.63;96311.88;6097645;23;20179;-83
2021/10/26 09:33:09;;;;;;;8.10;7.17;;;;;;;11.68;83.17;96325.59;6096817;23;20653;-83
2021/10/26 09:35:37;;;;;;;9.73;7.13;;;;;;;11.69;82.43;96315.09;6099299;23;20657;-83
2021/10/26 09:38:04;;;;;;;8.47;6.83;;;;;;;11.71;83.01;96317.53;6099326;23;20293;-83
2021/10/26 09:40:42;;;;;;;9.03;7.23;;;;;;;11.72;83.39;96325.09;6098373;23;20176;-83
2021/10/26 09:43:12;;;;;;;8.97;7.50;;;;;;;11.74;82.72;96319.75;6099183;23;20245;-83
2021/10/26 09:45:39;;;;;;;8.63;7.70;;;;;;;11.76;83.07;96321.22;6097802;23;20176;-83
2021/10/26 09:48:13;;;;;;;9.57;7.77;;;;;;;11.77;84.06;96327.19;6099247;23;20180;-83
2021/10/26 09:50:40;;;;;;;8.63;7.60;;;;;;;11.75;84.19;96318.78;6098429;23;20157;-83
2021/10/26 09:53:09;;;;;;;8.40;7.50;;;;;;;11.71;85.37;96320.09;6098866;23;20231;-84
2021/10/26 09:55:40;;;;;;;10.07;8.10;;;;;;;11.76;83.75;96326.38;6099719;23;20188;-83
2021/10/26 09:58:10;;;;;;;8.60;7.63;;;;;;;11.77;85.89;96322.84;6099441;23;20176;-83
2021/10/26 10:00:39;;;;;;;10.10;8.77;;;;;;;11.81;85.54;96319.94;6098935;23;20165;-83
2021/10/26 10:03:08;;;;;;;9.27;8.23;;;;;;;11.82;86.44;96324.13;6100828;23;20212;-83
2021/10/26 10:05:37;;;;;;;12.20;8.17;;;;;;;11.81;86.86;96323.31;6099240;23;20484;-83
2021/10/26 10:08:20;;;;;;;10.47;8.40;;;;;;;11.87;86.81;96327.03;6098226;23;20180;-84
2021/10/26 10:10:47;;;;;;;9.73;8.73;;;;;;;11.93;86.03;96327.13;6096682;23;20180;-83
2021/10/26 10:13:14;;;;;;;9.70;8.70;;;;;;;11.94;87.17;96322.78;6099908;23;20211;-84
2021/10/26 10:15:44;;;;;;;10.13;7.97;;;;;;;11.96;86.78;96319.06;6099233;23;20585;-83
2021/10/26 10:18:11;;;;;;;11.27;8.33;;;;;;;11.95;87.05;96311.50;6102040;23;20188;-83
2021/10/26 10:20:39;;;;;;;9.73;8.30;;;;;;;12.00;86.11;96309.22;6098010;23;20706;-83
2021/10/26 10:23:07;;;;;;;9.63;8.10;;;;;;;12.09;86.31;96310.81;6099195;23;20180;-83
2021/10/26 10:25:34;;;;;;;11.03;8.63;;;;;;;12.14;87.06;96312.88;6100333;23;20183;-83
2021/10/26 10:28:02;;;;;;;9.40;7.80;;;;;;;12.19;88.35;96303.66;6099205;23;20180;-83
2021/10/26 10:30:29;;;;;;;9.27;8.23;;;;;;;12.37;86.77;96306.00;6097710;23;20259;-83
2021/10/26 10:32:56;;;;;;;9.87;7.90;;;;;;;12.40;86.99;96308.25;6099031;23;20194;-83
2021/10/26 10:35:28;;;;;;;10.30;8.27;;;;;;;12.31;86.44;96307.50;6099511;23;20472;-83
2021/10/26 10:37:58;;;;;;;8.73;7.60;;;;;;;12.36;85.46;96310.34;6099332;23;20168;-83
2021/10/26 10:40:27;;;;;;;8.63;7.67;;;;;;;12.34;86.38;96312.28;6097268;23;20203;-84
2021/10/26 10:42:55;;;;;;;10.07;8.03;;;;;;;12.38;85.66;96310.19;6099777;23;20176;-83
2021/10/26 10:45:25;;;;;;;9.30;7.77;;;;;;;12.36;85.25;96306.97;6097149;23;20247;-83
2021/10/26 10:47:54;;;;;;;8.40;7.57;;;;;;;12.41;84.90;96307.25;6098612;23;20179;-83
2021/10/26 10:50:32;;;;;;;9.77;7.60;;;;;;;12.44;84.99;96305.16;6094554;23;20279;-83
2021/10/26 10:53:13;;;;;;;8.83;7.87;;;;;;;12.49;84.50;96301.25;6094310;23;20243;-83
2021/10/26 10:55:41;;;;;;;8.60;7.70;;;;;;;12.49;83.98;96306.44;6098440;23;20168;-83
2021/10/26 10:58:23;;;;;;;10.03;7.53;;;;;;;12.50;84.36;96295.94;6098048;23;20191;-83
2021/10/26 11:00:50;;;;;;;9.67;7.67;;;;;;;12.51;83.81;96297.50;6099213;23;20264;-84
2021/10/26 11:03:29;;;;;;;8.10;7.30;;;;;;;12.72;82.78;96299.47;6099431;23;20268;-83
2021/10/26 11:05:56;;;;;;;9.00;8.10;;;;;;;12.90;82.12;96304.34;6098590;23;20709;-84
2021/10/26 11:08:46;;;;;;;8.43;7.53;;;;;;;12.99;80.92;96295.56;6097434;23;20200;-84
2021/10/26 11:11:14;;;;;;;9.00;7.70;;;;;;;13.08;81.01;96297.13;6097091;23;20200;-84
2021/10/26 11:13:41;;;;;;;8.87;7.70;;;;;;;13.16;79.88;96294.50;6096897;23;20184;-83
2021/10/26 11:16:09;;;;;;;10.20;7.57;;;;;;;13.13;80.12;96298.19;6098968;23;20180;-82
2021/10/26 11:18:37;;;;;;;8.00;7.20;;;;;;;13.07;80.29;96301.50;6098016;23;20200;-82
2021/10/26 11:21:05;;;;;;;9.87;7.37;;;;;;;13.00;81.10;96302.34;6096040;23;20184;-82
2021/10/26 11:23:44;;;;;;;8.00;6.80;;;;;;;12.99;81.23;96311.88;6096902;23;20180;-84
2021/10/26 11:26:15;;;;;;;8.60;7.77;;;;;;;12.98;81.32;96301.72;6098129;23;20164;-84
2021/10/26 11:28:51;;;;;;;8.13;7.33;;;;;;;12.98;82.16;96306.88;6098078;23;20200;-84
2021/10/26 11:31:24;;;;;;;8.67;7.77;;;;;;;12.99;81.80;96309.31;6105920;23;20180;-83
2021/10/26 11:33:59;;;;;;;9.57;7.77;;;;;;;12.91;82.22;96304.19;6107417;23;20178;-83
2021/10/26 11:36:32;;;;;;;9.20;7.90;;;;;;;12.93;82.07;96304.00;6108943;23;20160;-81
2021/10/26 11:39:00;;;;;;;9.30;7.67;;;;;;;12.91;81.78;96296.44;6108978;23;20279;-82
2021/10/26 11:41:29;;;;;;;8.13;7.07;;;;;;;12.97;81.82;96302.69;6099889;23;20822;-82
2021/10/26 11:43:57;;;;;;;8.83;7.60;;;;;;;12.94;82.27;96301.25;6101386;23;20219;-82
2021/10/26 11:46:28;;;;;;;8.33;7.00;;;;;;;13.00;82.09;96303.16;6100325;23;20181;-82
2021/10/26 11:48:58;;;;;;;9.63;7.60;;;;;;;13.06;81.56;96297.31;6100211;23;20200;-82
2021/10/26 11:51:31;;;;;;;8.07;7.27;;;;;;;13.20;82.33;96290.59;6100135;23;20176;-83
2021/10/26 11:54:01;;;;;;;8.17;6.90;;;;;;;13.31;81.41;96287.56;6098423;23;20201;-82